Gentryville, Indiana
Current Conditions -  °F | °C
As of 7:35 AM on Sunday 21 Dec 2014 (Local Time) from KHNB Reporting Station
Clear Clear  
Wind Chill: 21°   Ceiling: Unl
Heat Index: 21°   Visibility: 3mi
Dew Point: 19°   Wind: 3mph
Humidity: 93%   Direction: 110°ESE
Pressure: 30.29"   Gusts: NA
Location:  38.1°N, 87.03°W
Report Text: KHNB 211335Z AUTO 11003KT 3SM CLR M06/M07 A3029 RMK AO1
Loading
Personal Weather Stations






























Interactive Weather Map New forecast layout! Learn more

10-Day Weather Forecast

Advertisements
Track Severe Weather on mobile